Time;durP1;ratioP1;P1;durP2;ratioP2;P2;SDS_P1;SDS_P2;PMS_P1;PMS_P2;Temp;Humidity;BMP_temperature;BMP_pressure;BME280_temperature;BME280_humidity;BME280_pressure;Samples;Min_cycle;Max_cycle;Signal;HPM_P1;HPM_P2
2022/11/26 00:15:24;;;;;;;0.00;0.00;;;;;;;;;;6181210;23;20175;-80
2022/11/26 00:18:15;;;;;;;0.00;0.00;;;;;;;;;;6231608;23;20179;-80
2022/11/26 00:39:54;;;;;;;0.00;0.00;;;;;;;;;;5152751;27;20603;-81
2022/11/26 00:42:22;;;;;;;0.00;0.00;;;;;;;;;;5152581;27;20616;-82
2022/11/26 00:44:51;;;;;;;0.00;0.00;;;;;;;;;;5138918;27;20230;-82
2022/11/26 00:47:20;;;;;;;0.00;0.00;;;;;;;;;;5144551;27;20268;-83
2022/11/26 00:49:49;;;;;;;0.00;0.00;;;;;;;;;;5161845;27;20705;-82
2022/11/26 00:52:24;;;;;;;0.00;0.00;;;;;;;;;;5141266;28;20204;-82
2022/11/26 00:54:54;;;;;;;0.00;0.00;;;;;;;;;;5142861;27;20543;-82
2022/11/26 00:57:23;;;;;;;0.00;0.00;;;;;;;;;;5140805;28;20197;-82
2022/11/26 00:59:52;;;;;;;0.00;0.00;;;;;;;;;;5139744;28;20213;-81
2022/11/26 01:02:21;;;;;;;0.00;0.00;;;;;;;;;;5144418;27;20227;-83
2022/11/26 01:04:50;;;;;;;0.00;0.00;;;;;;;;;;5139015;28;20210;-83
2022/11/26 01:07:19;;;;;;;0.00;0.00;;;;;;;;;;5139169;28;20265;-82
2022/11/26 01:09:50;;;;;;;0.00;0.00;;;;;;;;;;5117580;28;20197;-81
2022/11/26 01:12:20;;;;;;;0.00;0.00;;;;;;;;;;5124570;27;20203;-81
2022/11/26 01:14:48;;;;;;;0.00;0.00;;;;;;;;;;5136433;28;20200;-81
2022/11/26 01:17:18;;;;;;;0.00;0.00;;;;;;;;;;5144778;27;20211;-82
2022/11/26 01:19:47;;;;;;;0.00;0.00;;;;;;;;;;5139949;27;20221;-82
2022/11/26 01:22:20;;;;;;;0.00;0.00;;;;;;;;;;5135507;28;20218;-81
2022/11/26 01:24:49;;;;;;;0.00;0.00;;;;;;;;;;5132596;27;20193;-82
2022/11/26 01:27:21;;;;;;;0.00;0.00;;;;;;;;;;5121299;28;20212;-82
2022/11/26 01:29:49;;;;;;;0.00;0.00;;;;;;;;;;5121745;28;20193;-83
2022/11/26 01:32:18;;;;;;;0.00;0.00;;;;;;;;;;5124050;28;20205;-83
2022/11/26 01:34:47;;;;;;;0.00;0.00;;;;;;;;;;5135417;28;20284;-83
2022/11/26 01:37:16;;;;;;;0.00;0.00;;;;;;;;;;5136491;27;20200;-82
2022/11/26 01:39:44;;;;;;;0.00;0.00;;;;;;;;;;5117065;28;20221;-82
2022/11/26 01:42:22;;;;;;;0.00;0.00;;;;;;;;;;5117419;28;20206;-82
2022/11/26 01:44:52;;;;;;;0.00;0.00;;;;;;;;;;5149333;27;20697;-82
2022/11/26 01:47:22;;;;;;;0.00;0.00;;;;;;;;;;5150806;27;20196;-81
2022/11/26 01:50:10;;;;;;;0.00;0.00;;;;;;;;;;5130489;28;20548;-81
2022/11/26 01:52:38;;;;;;;0.00;0.00;;;;;;;;;;5121201;28;20201;-82
2022/11/26 01:55:11;;;;;;;0.00;0.00;;;;;;;;;;5124654;27;20207;-81
2022/11/26 01:57:40;;;;;;;0.00;0.00;;;;;;;;;;5129139;27;20216;-81
2022/11/26 02:00:11;;;;;;;0.00;0.00;;;;;;;;;;5098074;28;20634;-81
2022/11/26 02:02:45;;;;;;;0.00;0.00;;;;;;;;;;5098659;28;20206;-81
2022/11/26 02:05:18;;;;;;;0.00;0.00;;;;;;;;;;5117751;28;20249;-81
2022/11/26 02:07:48;;;;;;;0.00;0.00;;;;;;;;;;5102159;28;20201;-81
2022/11/26 02:10:16;;;;;;;0.00;0.00;;;;;;;;;;5117702;28;20397;-81
2022/11/26 02:12:45;;;;;;;0.00;0.00;;;;;;;;;;5117768;28;20274;-82
2022/11/26 02:15:15;;;;;;;0.00;0.00;;;;;;;;;;5118431;28;20212;-82
2022/11/26 02:17:46;;;;;;;0.00;0.00;;;;;;;;;;5117305;28;20716;-82
2022/11/26 02:20:25;;;;;;;0.00;0.00;;;;;;;;;;5116650;28;20224;-81
2022/11/26 02:23:09;;;;;;;0.00;0.00;;;;;;;;;;5108629;28;20236;-81
2022/11/26 02:25:48;;;;;;;0.00;0.00;;;;;;;;;;5097041;28;20193;-81
2022/11/26 02:28:28;;;;;;;0.00;0.00;;;;;;;;;;5115732;27;20232;-81
2022/11/26 02:31:03;;;;;;;0.00;0.00;;;;;;;;;;5119681;28;20215;-82
2022/11/26 02:33:35;;;;;;;0.00;0.00;;;;;;;;;;5119494;27;20224;-81
2022/11/26 02:36:08;;;;;;;0.00;0.00;;;;;;;;;;5119645;28;20205;-81
2022/11/26 02:38:37;;;;;;;0.00;0.00;;;;;;;;;;5119894;28;20209;-81
2022/11/26 02:41:06;;;;;;;0.00;0.00;;;;;;;;;;5119074;28;20215;-82
2022/11/26 02:43:37;;;;;;;0.00;0.00;;;;;;;;;;5115958;28;20218;-83
2022/11/26 02:46:09;;;;;;;0.00;0.00;;;;;;;;;;5100093;28;20198;-82
2022/11/26 02:48:42;;;;;;;0.00;0.00;;;;;;;;;;5110575;28;20228;-82
2022/11/26 02:51:13;;;;;;;0.00;0.00;;;;;;;;;;5119274;28;20281;-82
2022/11/26 02:53:42;;;;;;;0.00;0.00;;;;;;;;;;5119758;28;20746;-82
2022/11/26 02:56:12;;;;;;;0.00;0.00;;;;;;;;;;5119077;28;20201;-82
2022/11/26 02:58:41;;;;;;;0.00;0.00;;;;;;;;;;5118276;28;20576;-82
2022/11/26 03:01:13;;;;;;;0.00;0.00;;;;;;;;;;5116262;28;20205;-82
2022/11/26 03:03:45;;;;;;;0.00;0.00;;;;;;;;;;5117141;28;20213;-82
2022/11/26 03:06:15;;;;;;;0.00;0.00;;;;;;;;;;5118153;28;20189;-82
2022/11/26 03:08:44;;;;;;;0.00;0.00;;;;;;;;;;5118006;28;20223;-82
2022/11/26 03:11:13;;;;;;;0.00;0.00;;;;;;;;;;5119331;28;20205;-82
2022/11/26 03:13:42;;;;;;;0.00;0.00;;;;;;;;;;5126462;27;20590;-81
2022/11/26 03:16:12;;;;;;;0.00;0.00;;;;;;;;;;5148174;27;20202;-82
2022/11/26 03:18:41;;;;;;;0.00;0.00;;;;;;;;;;5130065;27;20291;-83
2022/11/26 03:21:10;;;;;;;0.00;0.00;;;;;;;;;;5115605;28;20228;-83
2022/11/26 03:23:40;;;;;;;0.00;0.00;;;;;;;;;;5128592;27;20224;-81
2022/11/26 03:29:54;;;;;;;0.00;0.00;;;;;;;;;;5126509;28;20200;-82
2022/11/26 03:33:04;;;;;;;0.00;0.00;;;;;;;;;;5088964;28;20201;-83
2022/11/26 03:35:54;;;;;;;0.00;0.00;;;;;;;;;;5117211;27;20253;-82
2022/11/26 03:38:33;;;;;;;0.00;0.00;;;;;;;;;;5135140;27;20210;-81
2022/11/26 03:41:23;;;;;;;0.00;0.00;;;;;;;;;;5116417;28;20206;-82
2022/11/26 06:38:06;;;;;;;0.00;0.00;;;;;;;;;;4976182;28;20674;-81
2022/11/26 06:40:35;;;;;;;0.00;0.00;;;;;;;;;;4976929;28;20249;-81
2022/11/26 06:43:03;;;;;;;0.00;0.00;;;;;;;;;;4977266;28;20276;-81
2022/11/26 06:45:32;;;;;;;0.00;0.00;;;;;;;;;;4977443;28;20284;-81
2022/11/26 06:48:00;;;;;;;0.00;0.00;;;;;;;;;;4977076;28;20210;-81
2022/11/26 06:50:29;;;;;;;0.00;0.00;;;;;;;;;;4977620;28;20298;-81
2022/11/26 06:52:57;;;;;;;0.00;0.00;;;;;;;;;;4974252;28;20642;-81
2022/11/26 06:55:27;;;;;;;0.00;0.00;;;;;;;;;;4976200;28;20213;-81
2022/11/26 06:57:56;;;;;;;0.00;0.00;;;;;;;;;;4980399;28;20233;-81
2022/11/26 07:00:24;;;;;;;0.00;0.00;;;;;;;;;;4976881;28;20687;-81
2022/11/26 07:02:53;;;;;;;0.00;0.00;;;;;;;;;;4974471;28;20333;-81
2022/11/26 07:05:28;;;;;;;0.00;0.00;;;;;;;;;;4961999;28;20305;-81
2022/11/26 07:07:56;;;;;;;0.00;0.00;;;;;;;;;;4978068;28;20201;-81
2022/11/26 07:10:25;;;;;;;0.00;0.00;;;;;;;;;;4963097;28;20580;-81
2022/11/26 07:12:55;;;;;;;0.00;0.00;;;;;;;;;;4971429;28;20293;-81
2022/11/26 07:15:24;;;;;;;0.00;0.00;;;;;;;;;;4960249;29;20245;-81
2022/11/26 07:17:52;;;;;;;0.00;0.00;;;;;;;;;;4974417;28;20198;-81
2022/11/26 07:20:21;;;;;;;0.00;0.00;;;;;;;;;;4981996;28;20245;-81
2022/11/26 07:22:50;;;;;;;0.00;0.00;;;;;;;;;;4978300;28;20240;-81
2022/11/26 07:25:18;;;;;;;0.00;0.00;;;;;;;;;;4968117;28;20285;-81
2022/11/26 07:27:47;;;;;;;0.00;0.00;;;;;;;;;;4973706;28;20206;-81
2022/11/26 07:30:17;;;;;;;0.00;0.00;;;;;;;;;;4978060;28;20217;-81
2022/11/26 07:32:46;;;;;;;0.00;0.00;;;;;;;;;;4977752;28;20230;-81
2022/11/26 07:35:14;;;;;;;0.00;0.00;;;;;;;;;;4976457;28;20237;-81
2022/11/26 07:37:43;;;;;;;0.00;0.00;;;;;;;;;;4972377;28;20274;-81
2022/11/26 07:40:12;;;;;;;0.00;0.00;;;;;;;;;;4956786;29;20223;-81
2022/11/26 07:42:40;;;;;;;0.00;0.00;;;;;;;;;;4980617;28;20220;-81
2022/11/26 07:45:09;;;;;;;0.00;0.00;;;;;;;;;;4981523;28;20652;-81
2022/11/26 07:47:39;;;;;;;0.00;0.00;;;;;;;;;;4977258;28;20285;-81
2022/11/26 07:50:08;;;;;;;0.00;0.00;;;;;;;;;;4977307;28;20201;-81
2022/11/26 07:52:37;;;;;;;0.00;0.00;;;;;;;;;;4978704;28;20245;-81
2022/11/26 07:55:06;;;;;;;0.00;0.00;;;;;;;;;;4977893;28;20206;-81
2022/11/26 07:57:39;;;;;;;0.00;0.00;;;;;;;;;;4957331;28;20203;-81
2022/11/26 08:00:09;;;;;;;0.00;0.00;;;;;;;;;;4974886;28;20624;-81
2022/11/26 08:02:39;;;;;;;0.00;0.00;;;;;;;;;;4976512;28;20202;-81
2022/11/26 08:05:10;;;;;;;0.00;0.00;;;;;;;;;;4976813;28;20226;-81
2022/11/26 08:07:39;;;;;;;0.00;0.00;;;;;;;;;;4977152;28;20194;-81
2022/11/26 08:10:08;;;;;;;0.00;0.00;;;;;;;;;;4976645;28;20214;-82
2022/11/26 08:12:36;;;;;;;0.00;0.00;;;;;;;;;;4976262;28;20209;-81
2022/11/26 08:15:05;;;;;;;0.00;0.00;;;;;;;;;;4978565;28;20202;-81
2022/11/26 08:17:34;;;;;;;0.00;0.00;;;;;;;;;;4979277;28;20209;-81
2022/11/26 08:20:03;;;;;;;0.00;0.00;;;;;;;;;;4977391;28;20604;-81
2022/11/26 08:22:33;;;;;;;0.00;0.00;;;;;;;;;;4976280;28;20214;-81
2022/11/26 08:25:02;;;;;;;0.00;0.00;;;;;;;;;;4965465;28;20202;-81
2022/11/26 08:27:32;;;;;;;0.00;0.00;;;;;;;;;;4976306;28;20201;-81
2022/11/26 08:30:01;;;;;;;0.00;0.00;;;;;;;;;;4976588;28;20209;-81
2022/11/26 08:32:29;;;;;;;0.00;0.00;;;;;;;;;;4978026;28;20277;-81
2022/11/26 08:34:58;;;;;;;0.00;0.00;;;;;;;;;;4978819;28;20248;-81
2022/11/26 08:37:27;;;;;;;0.00;0.00;;;;;;;;;;4976538;28;20228;-81
2022/11/26 08:39:57;;;;;;;0.00;0.00;;;;;;;;;;4976722;28;20221;-80
2022/11/26 08:42:26;;;;;;;0.00;0.00;;;;;;;;;;4976804;28;20221;-81
2022/11/26 08:44:54;;;;;;;0.00;0.00;;;;;;;;;;4976647;28;20205;-81
2022/11/26 08:47:23;;;;;;;0.00;0.00;;;;;;;;;;4976252;28;20205;-81
2022/11/26 08:49:52;;;;;;;0.00;0.00;;;;;;;;;;4976875;28;20663;-81
2022/11/26 08:52:20;;;;;;;0.00;0.00;;;;;;;;;;4975773;28;20248;-81
2022/11/26 08:54:49;;;;;;;0.00;0.00;;;;;;;;;;4964746;28;20644;-81
2022/11/26 08:57:19;;;;;;;0.00;0.00;;;;;;;;;;4978787;28;20202;-81
2022/11/26 08:59:49;;;;;;;0.00;0.00;;;;;;;;;;4977924;28;20201;-81
2022/11/26 09:02:18;;;;;;;0.00;0.00;;;;;;;;;;4980154;28;20641;-80
2022/11/26 09:04:46;;;;;;;0.00;0.00;;;;;;;;;;4982395;28;20236;-81
2022/11/26 09:07:15;;;;;;;0.00;0.00;;;;;;;;;;4982323;28;20265;-81
2022/11/26 09:09:44;;;;;;;0.00;0.00;;;;;;;;;;4981429;28;20264;-81
2022/11/26 09:12:13;;;;;;;0.00;0.00;;;;;;;;;;4981561;28;20224;-81
2022/11/26 09:14:43;;;;;;;0.00;0.00;;;;;;;;;;4980552;28;20225;-81
2022/11/26 09:17:12;;;;;;;0.00;0.00;;;;;;;;;;4981711;28;20558;-81
2022/11/26 09:19:41;;;;;;;0.00;0.00;;;;;;;;;;4980435;28;20667;-81
2022/11/26 09:22:10;;;;;;;0.00;0.00;;;;;;;;;;4979991;28;20667;-81
2022/11/26 09:24:39;;;;;;;0.00;0.00;;;;;;;;;;4980031;28;20249;-81
2022/11/26 09:27:07;;;;;;;0.00;0.00;;;;;;;;;;4979241;28;20216;-81
2022/11/26 09:29:36;;;;;;;0.00;0.00;;;;;;;;;;4979651;28;20256;-81
2022/11/26 09:32:08;;;;;;;0.00;0.00;;;;;;;;;;4978174;28;20217;-81
2022/11/26 09:34:54;;;;;;;0.00;0.00;;;;;;;;;;4973530;28;20194;-81
2022/11/26 09:37:23;;;;;;;0.00;0.00;;;;;;;;;;4979616;28;20251;-81
2022/11/26 09:39:53;;;;;;;0.00;0.00;;;;;;;;;;4978722;28;20206;-82
2022/11/26 09:42:27;;;;;;;0.00;0.00;;;;;;;;;;4979581;28;20210;-81
2022/11/26 09:45:03;;;;;;;0.00;0.00;;;;;;;;;;4980358;28;20633;-81
2022/11/26 09:47:36;;;;;;;0.00;0.00;;;;;;;;;;4981956;28;20232;-80
2022/11/26 09:50:08;;;;;;;0.00;0.00;;;;;;;;;;4983513;28;20210;-80
2022/11/26 09:52:39;;;;;;;0.00;0.00;;;;;;;;;;4985199;28;20249;-82
2022/11/26 09:55:14;;;;;;;0.00;0.00;;;;;;;;;;4985989;28;20220;-81
2022/11/26 09:57:43;;;;;;;0.00;0.00;;;;;;;;;;4984488;28;20277;-78
2022/11/26 10:00:21;;;;;;;0.00;0.00;;;;;;;;;;4979541;28;20206;-79
2022/11/26 10:02:53;;;;;;;0.00;0.00;;;;;;;;;;4980194;28;20801;-80
2022/11/26 10:05:23;;;;;;;0.00;0.00;;;;;;;;;;4974471;28;20218;-79
2022/11/26 10:07:57;;;;;;;0.00;0.00;;;;;;;;;;4980580;28;20220;-79
2022/11/26 10:10:30;;;;;;;0.00;0.00;;;;;;;;;;4978446;28;20208;-78
2022/11/26 10:13:02;;;;;;;0.00;0.00;;;;;;;;;;4979426;28;20228;-79
2022/11/26 10:15:51;;;;;;;0.00;0.00;;;;;;;;;;4978515;28;20194;-78
2022/11/26 10:18:26;;;;;;;0.00;0.00;;;;;;;;;;4978211;28;20213;-78
2022/11/26 10:21:07;;;;;;;0.00;0.00;;;;;;;;;;4978105;28;20249;-81
2022/11/26 10:23:38;;;;;;;0.00;0.00;;;;;;;;;;4972899;28;20627;-81
2022/11/26 10:26:08;;;;;;;0.00;0.00;;;;;;;;;;4976477;28;20202;-81
2022/11/26 10:28:40;;;;;;;0.00;0.00;;;;;;;;;;4974168;28;20343;-81
2022/11/26 10:31:17;;;;;;;0.00;0.00;;;;;;;;;;4971924;28;20269;-81
2022/11/26 10:33:52;;;;;;;0.00;0.00;;;;;;;;;;4978108;28;20225;-81
2022/11/26 10:36:24;;;;;;;0.00;0.00;;;;;;;;;;4975670;28;20236;-81
2022/11/26 10:38:55;;;;;;;0.00;0.00;;;;;;;;;;4976543;28;20245;-82
2022/11/26 10:41:27;;;;;;;0.00;0.00;;;;;;;;;;4976672;28;20290;-78
2022/11/26 10:43:56;;;;;;;0.00;0.00;;;;;;;;;;4977796;28;20225;-79
2022/11/26 10:46:31;;;;;;;0.00;0.00;;;;;;;;;;4976939;28;20637;-79
2022/11/26 10:49:23;;;;;;;0.00;0.00;;;;;;;;;;4976123;28;20235;-80
2022/11/26 10:51:54;;;;;;;0.00;0.00;;;;;;;;;;4976145;28;20209;-78
2022/11/26 10:54:25;;;;;;;0.00;0.00;;;;;;;;;;4973242;28;20241;-79
2022/11/26 10:57:02;;;;;;;0.00;0.00;;;;;;;;;;4973096;28;20978;-79
2022/11/26 10:59:35;;;;;;;0.00;0.00;;;;;;;;;;4975641;28;20205;-79
2022/11/26 11:02:07;;;;;;;0.00;0.00;;;;;;;;;;4975678;28;20218;-79
2022/11/26 11:04:41;;;;;;;0.00;0.00;;;;;;;;;;4971735;28;20253;-78
2022/11/26 11:07:28;;;;;;;0.00;0.00;;;;;;;;;;4975724;28;20216;-79
2022/11/26 11:10:02;;;;;;;0.00;0.00;;;;;;;;;;4967477;28;20209;-78
2022/11/26 11:12:33;;;;;;;0.00;0.00;;;;;;;;;;4974617;28;20197;-79
2022/11/26 11:15:20;;;;;;;0.00;0.00;;;;;;;;;;4972950;28;20293;-79
2022/11/26 11:17:55;;;;;;;0.00;0.00;;;;;;;;;;4975553;28;20194;-79
2022/11/26 11:20:30;;;;;;;0.00;0.00;;;;;;;;;;4974653;28;20209;-79
2022/11/26 11:23:02;;;;;;;0.00;0.00;;;;;;;;;;4972850;28;20229;-79
2022/11/26 11:25:32;;;;;;;0.00;0.00;;;;;;;;;;4974710;28;20213;-79
2022/11/26 11:28:04;;;;;;;0.00;0.00;;;;;;;;;;4974380;28;20268;-78
2022/11/26 11:30:40;;;;;;;0.00;0.00;;;;;;;;;;4975411;28;20205;-79
2022/11/26 11:33:11;;;;;;;0.00;0.00;;;;;;;;;;4973642;28;20218;-79
2022/11/26 11:35:41;;;;;;;0.00;0.00;;;;;;;;;;4970888;28;20268;-78
2022/11/26 11:38:21;;;;;;;0.00;0.00;;;;;;;;;;4975022;28;20623;-79
2022/11/26 11:40:50;;;;;;;0.00;0.00;;;;;;;;;;4967188;28;20201;-79
2022/11/26 11:43:21;;;;;;;0.00;0.00;;;;;;;;;;4973268;28;20312;-78
2022/11/26 11:46:02;;;;;;;0.00;0.00;;;;;;;;;;4973917;28;20237;-79
2022/11/26 11:48:38;;;;;;;0.00;0.00;;;;;;;;;;4974498;28;20202;-79
2022/11/26 11:51:11;;;;;;;0.00;0.00;;;;;;;;;;4972959;28;20612;-78
2022/11/26 11:53:46;;;;;;;0.00;0.00;;;;;;;;;;4961953;28;20245;-79
2022/11/26 11:56:21;;;;;;;0.00;0.00;;;;;;;;;;4957098;28;20787;-79
2022/11/26 11:59:05;;;;;;;0.00;0.00;;;;;;;;;;4956078;28;20253;-78
2022/11/26 12:01:47;;;;;;;0.00;0.00;;;;;;;;;;4962670;28;20214;-80
2022/11/26 12:04:22;;;;;;;0.00;0.00;;;;;;;;;;4975074;28;20679;-79
2022/11/26 12:06:57;;;;;;;0.00;0.00;;;;;;;;;;4976227;28;20271;-78
2022/11/26 12:09:29;;;;;;;0.00;0.00;;;;;;;;;;4977127;28;20284;-78
2022/11/26 12:11:59;;;;;;;0.00;0.00;;;;;;;;;;4968706;28;20210;-78
2022/11/26 12:14:30;;;;;;;0.00;0.00;;;;;;;;;;4969159;28;20249;-79
2022/11/26 12:17:03;;;;;;;0.00;0.00;;;;;;;;;;4974722;28;20606;-78
2022/11/26 12:19:36;;;;;;;0.00;0.00;;;;;;;;;;4973356;28;20201;-78
2022/11/26 12:22:12;;;;;;;0.00;0.00;;;;;;;;;;4973114;28;20643;-79
2022/11/26 12:24:44;;;;;;;0.00;0.00;;;;;;;;;;4974535;28;20669;-79
2022/11/26 12:27:19;;;;;;;0.00;0.00;;;;;;;;;;4974785;28;20244;-78
2022/11/26 12:30:04;;;;;;;0.00;0.00;;;;;;;;;;4973516;28;20198;-79
2022/11/26 12:32:34;;;;;;;0.00;0.00;;;;;;;;;;4974120;28;20281;-78
2022/11/26 12:35:08;;;;;;;0.00;0.00;;;;;;;;;;4958778;28;20218;-78
2022/11/26 12:37:40;;;;;;;0.00;0.00;;;;;;;;;;4974363;28;20252;-78
2022/11/26 12:40:16;;;;;;;0.00;0.00;;;;;;;;;;4974397;28;20249;-78
2022/11/26 12:42:48;;;;;;;0.00;0.00;;;;;;;;;;4968433;28;20265;-78
2022/11/26 12:45:19;;;;;;;0.00;0.00;;;;;;;;;;4973180;28;20240;-78
2022/11/26 12:47:54;;;;;;;0.00;0.00;;;;;;;;;;4974975;28;20248;-79
2022/11/26 12:50:26;;;;;;;0.00;0.00;;;;;;;;;;4975099;28;20239;-79
2022/11/26 12:52:59;;;;;;;0.00;0.00;;;;;;;;;;4974001;28;20226;-79
2022/11/26 12:55:32;;;;;;;0.00;0.00;;;;;;;;;;4974858;28;20244;-79
2022/11/26 12:58:02;;;;;;;0.00;0.00;;;;;;;;;;4974552;28;20194;-79
2022/11/26 13:00:34;;;;;;;0.00;0.00;;;;;;;;;;4970340;28;20258;-78
2022/11/26 13:03:05;;;;;;;0.00;0.00;;;;;;;;;;4957626;28;20230;-79
2022/11/26 13:05:36;;;;;;;0.00;0.00;;;;;;;;;;4974061;28;20248;-79
2022/11/26 13:08:14;;;;;;;0.00;0.00;;;;;;;;;;4974855;28;20205;-79
2022/11/26 13:10:51;;;;;;;0.00;0.00;;;;;;;;;;4971734;28;20239;-79
2022/11/26 13:13:22;;;;;;;0.00;0.00;;;;;;;;;;4974744;28;20271;-79
2022/11/26 13:16:01;;;;;;;0.00;0.00;;;;;;;;;;4971581;28;20198;-79
2022/11/26 13:18:33;;;;;;;0.00;0.00;;;;;;;;;;4964251;28;20686;-78
2022/11/26 13:21:07;;;;;;;0.00;0.00;;;;;;;;;;4974352;28;20237;-79
2022/11/26 13:23:43;;;;;;;0.00;0.00;;;;;;;;;;4972944;28;20749;-78
2022/11/26 13:26:19;;;;;;;0.00;0.00;;;;;;;;;;4974150;28;20229;-79
2022/11/26 13:28:57;;;;;;;0.00;0.00;;;;;;;;;;4972824;28;20236;-79
2022/11/26 13:31:44;;;;;;;0.00;0.00;;;;;;;;;;4974590;28;20299;-78
2022/11/26 13:34:19;;;;;;;0.00;0.00;;;;;;;;;;4972273;28;20281;-78
2022/11/26 13:37:21;;;;;;;0.00;0.00;;;;;;;;;;4970507;28;20268;-78
2022/11/26 13:40:07;;;;;;;0.00;0.00;;;;;;;;;;4972599;28;20201;-78
2022/11/26 13:42:46;;;;;;;0.00;0.00;;;;;;;;;;4970718;28;20201;-78
2022/11/26 13:45:26;;;;;;;0.00;0.00;;;;;;;;;;4966495;28;20248;-78
2022/11/26 13:47:55;;;;;;;0.00;0.00;;;;;;;;;;4973136;28;20651;-78
2022/11/26 13:50:27;;;;;;;0.00;0.00;;;;;;;;;;4970752;28;20232;-78
2022/11/26 13:52:57;;;;;;;0.00;0.00;;;;;;;;;;4973979;28;20902;-78
2022/11/26 13:55:28;;;;;;;0.00;0.00;;;;;;;;;;4975135;28;20679;-78
2022/11/26 13:58:00;;;;;;;0.00;0.00;;;;;;;;;;4974516;28;20276;-78
2022/11/26 14:00:30;;;;;;;0.00;0.00;;;;;;;;;;4976047;28;20238;-78
2022/11/26 14:02:59;;;;;;;0.00;0.00;;;;;;;;;;4976928;28;20222;-78
2022/11/26 14:05:57;;;;;;;0.00;0.00;;;;;;;;;;4969022;28;20244;-78
2022/11/26 14:08:36;;;;;;;0.00;0.00;;;;;;;;;;4974972;28;20208;-78
2022/11/26 14:11:05;;;;;;;0.00;0.00;;;;;;;;;;4974467;28;20217;-78
2022/11/26 14:13:35;;;;;;;0.00;0.00;;;;;;;;;;4974468;28;20296;-78
2022/11/26 14:16:06;;;;;;;0.00;0.00;;;;;;;;;;4968208;28;20238;-78
2022/11/26 14:18:55;;;;;;;0.00;0.00;;;;;;;;;;4976291;28;20205;-78
2022/11/26 14:21:24;;;;;;;0.00;0.00;;;;;;;;;;4976774;28;20249;-78
2022/11/26 14:23:53;;;;;;;0.00;0.00;;;;;;;;;;4976347;28;20265;-78
2022/11/26 14:26:25;;;;;;;0.00;0.00;;;;;;;;;;4976621;28;20640;-77
2022/11/26 14:28:59;;;;;;;0.00;0.00;;;;;;;;;;4975829;28;20210;-78
2022/11/26 14:31:33;;;;;;;0.00;0.00;;;;;;;;;;4975442;28;20201;-78
2022/11/26 14:34:06;;;;;;;0.00;0.00;;;;;;;;;;4980965;28;20229;-78
2022/11/26 14:36:34;;;;;;;0.00;0.00;;;;;;;;;;4976719;28;20205;-77
2022/11/26 14:39:07;;;;;;;0.00;0.00;;;;;;;;;;4961043;28;20237;-78
2022/11/26 14:41:36;;;;;;;0.00;0.00;;;;;;;;;;4975495;28;20240;-77
2022/11/26 14:44:11;;;;;;;0.00;0.00;;;;;;;;;;4976139;28;20651;-78
2022/11/26 14:46:40;;;;;;;0.00;0.00;;;;;;;;;;4976567;28;20259;-78
2022/11/26 14:49:25;;;;;;;0.00;0.00;;;;;;;;;;4977041;28;20242;-78
2022/11/26 14:51:54;;;;;;;0.00;0.00;;;;;;;;;;4969783;28;20241;-78
2022/11/26 14:54:24;;;;;;;0.00;0.00;;;;;;;;;;4970358;28;20309;-78
2022/11/26 14:56:53;;;;;;;0.00;0.00;;;;;;;;;;4963802;28;20257;-77
2022/11/26 14:59:23;;;;;;;0.00;0.00;;;;;;;;;;4960649;28;20671;-77
2022/11/26 15:01:51;;;;;;;0.00;0.00;;;;;;;;;;4973878;28;20213;-78
2022/11/26 15:04:25;;;;;;;0.00;0.00;;;;;;;;;;4974868;28;20233;-77
2022/11/26 15:06:54;;;;;;;0.00;0.00;;;;;;;;;;4975578;28;20229;-78
2022/11/26 15:09:24;;;;;;;0.00;0.00;;;;;;;;;;4976209;28;20290;-78
2022/11/26 15:12:00;;;;;;;0.00;0.00;;;;;;;;;;4976663;28;20213;-78
2022/11/26 15:14:34;;;;;;;0.00;0.00;;;;;;;;;;4975133;28;20221;-77
2022/11/26 15:17:03;;;;;;;0.00;0.00;;;;;;;;;;4974705;28;20251;-78
2022/11/26 15:19:33;;;;;;;0.00;0.00;;;;;;;;;;4962824;28;20273;-77
2022/11/26 15:22:03;;;;;;;0.00;0.00;;;;;;;;;;4976439;28;20252;-77
2022/11/26 15:24:32;;;;;;;0.00;0.00;;;;;;;;;;4969961;28;20261;-78
2022/11/26 15:27:00;;;;;;;0.00;0.00;;;;;;;;;;4956615;29;20569;-77
2022/11/26 15:29:36;;;;;;;0.00;0.00;;;;;;;;;;4956099;29;20202;-77
2022/11/26 15:32:05;;;;;;;0.00;0.00;;;;;;;;;;4961927;28;20209;-78
2022/11/26 15:34:33;;;;;;;0.00;0.00;;;;;;;;;;4975122;28;20284;-78
2022/11/26 15:37:02;;;;;;;0.00;0.00;;;;;;;;;;4975711;28;20253;-77
2022/11/26 15:39:31;;;;;;;0.00;0.00;;;;;;;;;;4975825;28;20679;-78
2022/11/26 15:42:02;;;;;;;0.00;0.00;;;;;;;;;;4975955;28;20206;-78
2022/11/26 15:44:31;;;;;;;0.00;0.00;;;;;;;;;;4975852;28;20225;-79
2022/11/26 15:47:06;;;;;;;0.00;0.00;;;;;;;;;;4961589;28;20217;-79
2022/11/26 15:49:37;;;;;;;0.00;0.00;;;;;;;;;;4975310;28;20237;-78
2022/11/26 15:52:08;;;;;;;0.00;0.00;;;;;;;;;;4975570;28;20241;-79
2022/11/26 15:54:38;;;;;;;0.00;0.00;;;;;;;;;;4975067;28;20221;-78
2022/11/26 15:57:28;;;;;;;0.00;0.00;;;;;;;;;;4976005;28;20231;-78
2022/11/26 15:59:58;;;;;;;0.00;0.00;;;;;;;;;;4975455;28;20237;-79
2022/11/26 16:02:29;;;;;;;0.00;0.00;;;;;;;;;;4974470;28;20246;-80
2022/11/26 16:04:59;;;;;;;0.00;0.00;;;;;;;;;;4974740;28;20237;-79
2022/11/26 16:07:28;;;;;;;0.00;0.00;;;;;;;;;;4974830;28;20209;-79
2022/11/26 16:10:11;;;;;;;0.00;0.00;;;;;;;;;;4974368;28;20254;-78
2022/11/26 16:12:43;;;;;;;0.00;0.00;;;;;;;;;;4975054;28;20234;-78
2022/11/26 16:15:22;;;;;;;0.00;0.00;;;;;;;;;;4974623;28;20198;-80
2022/11/26 16:17:52;;;;;;;0.00;0.00;;;;;;;;;;4974682;28;20289;-80
2022/11/26 16:20:21;;;;;;;0.00;0.00;;;;;;;;;;4960891;28;20210;-78
2022/11/26 16:22:51;;;;;;;0.00;0.00;;;;;;;;;;4956763;28;20258;-79
2022/11/26 16:25:21;;;;;;;0.00;0.00;;;;;;;;;;4974601;28;20346;-79
2022/11/26 16:28:02;;;;;;;0.00;0.00;;;;;;;;;;4975013;28;20722;-78
2022/11/26 16:30:32;;;;;;;0.00;0.00;;;;;;;;;;4974458;28;20289;-78
2022/11/26 16:33:02;;;;;;;0.00;0.00;;;;;;;;;;4974764;28;20249;-79
2022/11/26 16:35:31;;;;;;;0.00;0.00;;;;;;;;;;4957418;28;20688;-79
2022/11/26 16:38:22;;;;;;;0.00;0.00;;;;;;;;;;4954995;29;20242;-79
2022/11/26 16:40:50;;;;;;;0.00;0.00;;;;;;;;;;4954456;29;20252;-79
2022/11/26 16:43:19;;;;;;;0.00;0.00;;;;;;;;;;4954308;28;20227;-79
2022/11/26 16:45:48;;;;;;;0.00;0.00;;;;;;;;;;4971738;28;20233;-79
2022/11/26 16:48:21;;;;;;;0.00;0.00;;;;;;;;;;4971250;28;20655;-79
2022/11/26 16:50:49;;;;;;;0.00;0.00;;;;;;;;;;4966096;28;20206;-80
2022/11/26 16:53:18;;;;;;;0.00;0.00;;;;;;;;;;4985153;28;20280;-80
2022/11/26 16:55:48;;;;;;;0.00;0.00;;;;;;;;;;4972466;28;20253;-79
2022/11/26 16:58:21;;;;;;;0.00;0.00;;;;;;;;;;4968189;28;20198;-79
2022/11/26 17:00:51;;;;;;;0.00;0.00;;;;;;;;;;4973073;28;20198;-79
2022/11/26 17:03:22;;;;;;;0.00;0.00;;;;;;;;;;4971239;28;20659;-79
2022/11/26 17:05:53;;;;;;;0.00;0.00;;;;;;;;;;4972762;28;20221;-79
2022/11/26 17:08:21;;;;;;;0.00;0.00;;;;;;;;;;4958125;28;20236;-78
2022/11/26 17:10:50;;;;;;;0.00;0.00;;;;;;;;;;4973176;28;20260;-78
2022/11/26 17:13:20;;;;;;;0.00;0.00;;;;;;;;;;4972587;28;20655;-79
2022/11/26 17:15:49;;;;;;;0.00;0.00;;;;;;;;;;4971717;28;20201;-79
2022/11/26 17:18:19;;;;;;;0.00;0.00;;;;;;;;;;4972717;28;20214;-79
2022/11/26 17:20:50;;;;;;;0.00;0.00;;;;;;;;;;4954884;28;20285;-79
2022/11/26 17:23:18;;;;;;;0.00;0.00;;;;;;;;;;4961473;28;20218;-80
2022/11/26 17:25:50;;;;;;;0.00;0.00;;;;;;;;;;4971352;28;20253;-79
2022/11/26 17:28:19;;;;;;;0.00;0.00;;;;;;;;;;4958275;28;20195;-79
2022/11/26 17:30:48;;;;;;;0.00;0.00;;;;;;;;;;4957593;29;20218;-81
2022/11/26 17:33:18;;;;;;;0.00;0.00;;;;;;;;;;4957816;28;20221;-79
2022/11/26 17:35:46;;;;;;;0.00;0.00;;;;;;;;;;4976348;28;20210;-79
2022/11/26 17:38:17;;;;;;;0.00;0.00;;;;;;;;;;4976873;28;20243;-79
2022/11/26 17:40:46;;;;;;;0.00;0.00;;;;;;;;;;4976626;28;20441;-79
2022/11/26 17:43:15;;;;;;;0.00;0.00;;;;;;;;;;4976539;28;20225;-81
2022/11/26 17:45:44;;;;;;;0.00;0.00;;;;;;;;;;4976747;28;20276;-79
2022/11/26 17:48:13;;;;;;;0.00;0.00;;;;;;;;;;4976492;28;20214;-79
2022/11/26 17:50:42;;;;;;;0.00;0.00;;;;;;;;;;4976197;28;20206;-80
2022/11/26 17:53:10;;;;;;;0.00;0.00;;;;;;;;;;4975974;28;20663;-79
2022/11/26 17:55:40;;;;;;;0.00;0.00;;;;;;;;;;4971905;28;20222;-79
2022/11/26 17:58:09;;;;;;;0.00;0.00;;;;;;;;;;4976041;28;20210;-79
2022/11/26 18:00:38;;;;;;;0.00;0.00;;;;;;;;;;4975580;28;20612;-79
2022/11/26 18:03:06;;;;;;;0.00;0.00;;;;;;;;;;4976228;28;20804;-80
2022/11/26 18:05:35;;;;;;;0.00;0.00;;;;;;;;;;4957580;28;20281;-79
2022/11/26 18:08:09;;;;;;;0.00;0.00;;;;;;;;;;4971058;28;20217;-79
2022/11/26 18:10:41;;;;;;;0.00;0.00;;;;;;;;;;4974971;28;20206;-79
2022/11/26 18:13:09;;;;;;;0.00;0.00;;;;;;;;;;4975759;28;20305;-79
2022/11/26 18:15:38;;;;;;;0.00;0.00;;;;;;;;;;4983072;28;20222;-79
2022/11/26 18:18:07;;;;;;;0.00;0.00;;;;;;;;;;4976415;28;20209;-79
2022/11/26 18:20:35;;;;;;;0.00;0.00;;;;;;;;;;4976792;28;20705;-79
2022/11/26 18:23:04;;;;;;;0.00;0.00;;;;;;;;;;4975887;28;20234;-79
2022/11/26 18:25:34;;;;;;;0.00;0.00;;;;;;;;;;4970286;28;20652;-79
2022/11/26 18:28:04;;;;;;;0.00;0.00;;;;;;;;;;4972780;28;20201;-79
2022/11/26 18:30:32;;;;;;;0.00;0.00;;;;;;;;;;4975137;28;20248;-78
2022/11/26 18:33:01;;;;;;;0.00;0.00;;;;;;;;;;4974514;28;20226;-79
2022/11/26 18:35:30;;;;;;;0.00;0.00;;;;;;;;;;4974742;28;20206;-79
2022/11/26 18:37:58;;;;;;;0.00;0.00;;;;;;;;;;4975034;28;20255;-79
2022/11/26 18:40:27;;;;;;;0.00;0.00;;;;;;;;;;4974909;28;20201;-79
2022/11/26 18:42:55;;;;;;;0.00;0.00;;;;;;;;;;4974435;28;20238;-78